createdAt,value
2023-01-31T00:01:38.688Z,16.87
2023-01-31T00:04:11.394Z,15.57
2023-01-31T00:06:40.986Z,20.67
2023-01-31T00:09:10.697Z,16.53
2023-01-31T00:11:39.352Z,21.10
2023-01-31T00:14:10.690Z,20.60
2023-01-31T00:16:39.238Z,15.70
2023-01-31T00:19:08.530Z,15.37
2023-01-31T00:21:36.400Z,18.07
2023-01-31T00:24:05.641Z,17.33
2023-01-31T00:26:35.266Z,18.87
2023-01-31T00:29:05.527Z,17.77
2023-01-31T00:31:35.352Z,11.93
2023-01-31T00:34:03.865Z,13.27
2023-01-31T00:36:35.886Z,13.50
2023-01-31T00:39:05.928Z,11.67
2023-01-31T00:41:34.604Z,10.17
2023-01-31T00:44:02.562Z,12.67
2023-01-31T00:46:30.357Z,20.63
2023-01-31T00:48:58.662Z,14.23
2023-01-31T00:51:27.644Z,15.90
2023-01-31T00:53:56.837Z,12.70
2023-01-31T00:56:25.818Z,10.77
2023-01-31T00:58:53.912Z,12.73
2023-01-31T01:01:23.693Z,13.30
2023-01-31T01:03:51.740Z,15.07
2023-01-31T01:06:20.061Z,7.80
2023-01-31T01:08:48.061Z,8.77
2023-01-31T01:11:20.207Z,12.03
2023-01-31T01:13:48.449Z,13.23
2023-01-31T01:16:18.246Z,9.60
2023-01-31T01:18:48.133Z,12.40
2023-01-31T01:21:18.807Z,16.27
2023-01-31T01:23:47.497Z,9.43
2023-01-31T01:26:17.559Z,16.57
2023-01-31T01:28:45.380Z,13.63
2023-01-31T01:31:16.309Z,13.63
2023-01-31T01:33:44.989Z,13.63
2023-01-31T01:36:16.119Z,12.90
2023-01-31T01:38:45.320Z,13.73
2023-01-31T01:41:14.050Z,18.03
2023-01-31T01:43:45.221Z,13.67
2023-01-31T01:46:16.183Z,11.63
2023-01-31T01:48:48.103Z,14.03
2023-01-31T01:51:19.360Z,15.57
2023-01-31T01:53:51.600Z,11.63
2023-01-31T01:56:23.414Z,13.10
2023-01-31T01:59:00.618Z,16.77
2023-01-31T02:01:33.408Z,16.40
2023-01-31T02:04:01.314Z,18.40
2023-01-31T02:06:29.467Z,14.00
2023-01-31T02:08:57.288Z,12.10
2023-01-31T02:11:27.451Z,21.00
2023-01-31T02:14:00.970Z,14.07
2023-01-31T02:16:29.211Z,14.67
2023-01-31T02:18:58.054Z,18.10
2023-01-31T02:22:02.798Z,16.57
2023-01-31T02:25:08.613Z,17.80
2023-01-31T02:28:01.233Z,15.57
2023-01-31T02:30:55.219Z,17.73
2023-01-31T02:33:31.721Z,15.07
2023-01-31T02:36:08.874Z,16.40
2023-01-31T02:38:49.634Z,8.90
2023-01-31T02:41:23.887Z,8.37
2023-01-31T02:44:12.945Z,14.07
2023-01-31T02:47:00.828Z,10.07
2023-01-31T02:49:52.370Z,11.00
2023-01-31T02:52:42.744Z,14.17
2023-01-31T02:55:38.923Z,18.17
2023-01-31T02:58:14.340Z,10.83
2023-01-31T03:00:56.923Z,8.87
2023-01-31T03:03:40.728Z,11.83
2023-01-31T03:07:05.026Z,16.67
2023-01-31T03:09:59.956Z,14.47
2023-01-31T03:17:06.207Z,15.50
2023-01-31T03:20:31.268Z,12.87
2023-01-31T03:26:20.242Z,21.77
2023-01-31T03:29:44.969Z,11.73
2023-01-31T03:36:19.026Z,24.67
2023-01-31T03:39:28.955Z,16.23
2023-01-31T03:42:40.383Z,14.93
2023-01-31T03:45:35.089Z,18.70
2023-01-31T03:48:24.367Z,14.93
2023-01-31T03:51:44.541Z,18.33
2023-01-31T03:55:09.272Z,17.73
2023-01-31T03:58:06.233Z,15.53
2023-01-31T04:01:03.056Z,14.20
2023-01-31T04:04:06.869Z,11.80
2023-01-31T04:10:06.194Z,11.60
2023-01-31T04:12:47.106Z,17.77
2023-01-31T04:15:43.756Z,9.47
2023-01-31T04:21:45.549Z,14.57
2023-01-31T04:24:44.604Z,13.73
2023-01-31T04:31:13.327Z,13.90
2023-01-31T04:34:39.462Z,14.10
2023-01-31T04:38:12.479Z,14.47
2023-01-31T04:41:20.677Z,18.13
2023-01-31T04:44:20.907Z,13.70
2023-01-31T04:47:06.132Z,16.60
2023-01-31T04:49:46.082Z,12.13
2023-01-31T04:52:28.622Z,13.83
2023-01-31T04:55:21.025Z,11.87
2023-01-31T05:00:55.749Z,17.40
2023-01-31T05:03:47.876Z,11.80
2023-01-31T05:06:43.045Z,17.53
2023-01-31T05:09:24.860Z,12.23
2023-01-31T05:12:13.227Z,15.60
2023-01-31T05:14:55.186Z,13.03
2023-01-31T05:17:30.089Z,10.13
2023-01-31T05:20:02.115Z,12.70
2023-01-31T05:22:35.217Z,8.53
2023-01-31T05:25:09.627Z,15.40
2023-01-31T05:27:44.999Z,14.77
2023-01-31T05:30:27.324Z,11.17
2023-01-31T05:33:12.575Z,10.77
2023-01-31T05:39:20.446Z,13.60
2023-01-31T05:41:55.247Z,7.97
2023-01-31T05:44:27.421Z,9.93
2023-01-31T05:47:00.475Z,10.73
2023-01-31T05:49:37.391Z,12.50
2023-01-31T05:52:15.590Z,16.40
2023-01-31T05:54:45.206Z,12.87
2023-01-31T05:57:14.696Z,15.13
2023-01-31T05:59:42.838Z,14.67
2023-01-31T06:02:14.537Z,13.87
2023-01-31T06:07:48.517Z,10.70
2023-01-31T06:10:28.329Z,13.77
2023-01-31T06:12:56.507Z,14.30
2023-01-31T06:15:27.410Z,16.60
2023-01-31T06:18:02.619Z,11.70
2023-01-31T06:20:38.942Z,12.43
2023-01-31T06:23:09.988Z,14.80
2023-01-31T06:25:40.063Z,15.23
2023-01-31T06:28:20.127Z,12.23
2023-01-31T06:30:48.018Z,13.13
2023-01-31T06:33:16.030Z,11.87
2023-01-31T06:35:43.907Z,14.53
2023-01-31T06:38:13.188Z,10.57
2023-01-31T06:40:42.207Z,15.10
2023-01-31T06:43:12.578Z,8.67
2023-01-31T06:45:40.553Z,11.67
2023-01-31T06:48:12.960Z,18.40
2023-01-31T06:50:43.354Z,9.47
2023-01-31T06:53:12.024Z,12.97
2023-01-31T06:55:40.604Z,13.93
2023-01-31T06:58:20.744Z,11.00
2023-01-31T07:00:59.940Z,14.20
2023-01-31T07:07:13.449Z,17.53
2023-01-31T07:09:54.114Z,9.17
2023-01-31T07:12:32.434Z,13.87
2023-01-31T07:18:27.992Z,15.97
2023-01-31T07:24:12.942Z,14.23
2023-01-31T07:26:58.861Z,13.07
2023-01-31T07:38:01.724Z,14.67
2023-01-31T07:40:32.416Z,18.63
2023-01-31T07:43:05.408Z,17.77
2023-01-31T07:45:37.826Z,16.07
2023-01-31T07:48:09.851Z,15.57
2023-01-31T07:50:44.411Z,14.57
2023-01-31T07:53:16.203Z,20.17
2023-01-31T07:55:47.904Z,16.43
2023-01-31T07:58:20.544Z,18.73
2023-01-31T08:01:06.687Z,15.50
2023-01-31T08:03:46.654Z,19.43
2023-01-31T08:06:30.555Z,18.13
2023-01-31T08:09:07.555Z,16.70
2023-01-31T08:11:43.214Z,16.10
2023-01-31T08:14:14.740Z,19.77
2023-01-31T08:16:50.393Z,19.17
2023-01-31T08:19:32.925Z,15.37
2023-01-31T08:22:04.748Z,19.13
2023-01-31T08:25:13.227Z,15.17
2023-01-31T08:27:52.692Z,19.63
2023-01-31T08:30:38.761Z,15.60
2023-01-31T08:33:24.924Z,19.10
2023-01-31T08:36:21.867Z,19.97
2023-01-31T08:39:14.219Z,21.03
2023-01-31T08:41:48.128Z,14.10
2023-01-31T08:44:39.533Z,18.03
2023-01-31T08:47:15.833Z,17.63
2023-01-31T08:50:25.735Z,16.97
2023-01-31T08:53:17.866Z,18.77
2023-01-31T08:55:48.498Z,18.73
2023-01-31T08:58:25.778Z,26.97
2023-01-31T09:00:54.398Z,18.23
2023-01-31T09:03:36.061Z,18.87
2023-01-31T09:06:17.467Z,20.20
2023-01-31T09:08:57.129Z,20.17
2023-01-31T09:11:36.050Z,19.07
2023-01-31T09:14:26.057Z,18.07
2023-01-31T09:17:01.489Z,16.10
2023-01-31T09:19:32.423Z,16.60
2023-01-31T09:22:00.356Z,19.73
2023-01-31T09:24:28.615Z,18.00
2023-01-31T09:26:56.520Z,21.37
2023-01-31T09:29:25.735Z,19.70
2023-01-31T09:31:54.237Z,19.73
2023-01-31T09:34:22.869Z,16.27
2023-01-31T09:36:50.620Z,18.20
2023-01-31T09:39:18.367Z,19.07
2023-01-31T09:41:48.279Z,22.43
2023-01-31T09:44:20.251Z,20.33
2023-01-31T09:46:55.608Z,18.13
2023-01-31T09:49:27.165Z,16.40
2023-01-31T09:51:58.563Z,15.37
2023-01-31T09:54:30.862Z,17.47
2023-01-31T09:57:09.583Z,16.40
2023-01-31T09:59:44.819Z,15.83
2023-01-31T10:02:29.722Z,18.93
2023-01-31T10:05:12.482Z,19.43
2023-01-31T10:07:47.055Z,15.87
2023-01-31T10:10:22.551Z,16.63
2023-01-31T10:12:55.828Z,20.93
2023-01-31T10:15:31.610Z,14.80
2023-01-31T10:18:03.388Z,14.37
2023-01-31T10:20:37.220Z,16.83
2023-01-31T10:23:11.950Z,13.07
2023-01-31T10:25:44.643Z,11.47
2023-01-31T10:28:16.375Z,12.27
2023-01-31T10:30:49.518Z,14.33
2023-01-31T10:33:26.064Z,12.00
2023-01-31T10:35:56.759Z,11.17
2023-01-31T10:38:29.019Z,9.20
2023-01-31T10:41:02.973Z,10.07
2023-01-31T10:43:40.727Z,12.63
2023-01-31T10:46:12.700Z,12.20
2023-01-31T10:48:47.317Z,11.43
2023-01-31T10:51:30.860Z,7.73
2023-01-31T10:54:20.047Z,10.60
2023-01-31T10:56:49.390Z,8.43
2023-01-31T10:59:24.100Z,12.37
2023-01-31T11:01:52.323Z,12.33
2023-01-31T11:04:28.876Z,13.17
2023-01-31T11:06:59.392Z,11.47
2023-01-31T11:09:31.384Z,10.50
2023-01-31T11:12:00.797Z,12.97
2023-01-31T11:14:29.948Z,15.20
2023-01-31T11:17:01.761Z,14.17
2023-01-31T11:19:37.097Z,12.97
2023-01-31T11:22:05.599Z,10.90
2023-01-31T11:24:35.286Z,12.73
2023-01-31T11:27:05.619Z,9.87
2023-01-31T11:29:36.826Z,12.37
2023-01-31T11:32:07.814Z,12.27
2023-01-31T11:34:37.552Z,13.97
2023-01-31T11:37:13.659Z,17.07
2023-01-31T11:39:41.515Z,12.03
2023-01-31T11:42:17.306Z,10.83
2023-01-31T11:44:56.695Z,16.17
2023-01-31T11:47:32.171Z,14.03
2023-01-31T11:50:02.234Z,15.70
2023-01-31T11:52:32.139Z,12.63
2023-01-31T11:55:02.197Z,18.20
2023-01-31T11:57:32.976Z,11.57
2023-01-31T12:00:02.606Z,12.03
2023-01-31T12:02:37.482Z,15.83
2023-01-31T12:05:16.181Z,16.37
2023-01-31T12:07:46.756Z,15.60
2023-01-31T12:10:31.579Z,11.20
2023-01-31T12:13:16.730Z,15.63
2023-01-31T12:15:51.158Z,17.60
2023-01-31T12:18:28.903Z,15.93
2023-01-31T12:21:07.248Z,20.13
2023-01-31T12:23:46.556Z,15.47
2023-01-31T12:26:22.094Z,16.43
2023-01-31T12:29:11.894Z,15.53
2023-01-31T12:31:58.162Z,14.93
2023-01-31T12:34:59.552Z,12.47
2023-01-31T12:37:38.519Z,16.77
2023-01-31T12:40:27.646Z,15.27
2023-01-31T12:42:59.314Z,14.40
2023-01-31T12:45:41.895Z,15.37
2023-01-31T12:48:44.636Z,19.97
2023-01-31T12:51:36.206Z,11.43
2023-01-31T12:54:23.308Z,18.13
2023-01-31T12:57:03.830Z,15.53
2023-01-31T12:59:44.204Z,11.30
2023-01-31T13:02:40.106Z,17.70
2023-01-31T13:05:28.229Z,15.03
2023-01-31T13:08:01.615Z,19.90
2023-01-31T13:10:40.326Z,16.30
2023-01-31T13:13:16.824Z,16.73
2023-01-31T13:15:49.776Z,22.83
2023-01-31T13:18:19.656Z,22.10
2023-01-31T13:20:51.529Z,19.93
2023-01-31T13:23:22.293Z,19.93
2023-01-31T13:25:56.999Z,20.87
2023-01-31T13:28:29.319Z,17.13
2023-01-31T13:30:59.742Z,23.27
2023-01-31T13:33:33.405Z,18.53
2023-01-31T13:36:25.265Z,24.17
2023-01-31T13:38:53.667Z,16.27
2023-01-31T13:41:29.497Z,22.80
2023-01-31T13:43:58.048Z,14.27
2023-01-31T13:46:30.713Z,19.10
2023-01-31T13:49:02.097Z,21.13
2023-01-31T13:51:36.914Z,18.43
2023-01-31T13:54:13.224Z,17.30
2023-01-31T13:56:43.105Z,15.23
2023-01-31T13:59:11.862Z,15.97
2023-01-31T14:01:46.876Z,15.17
2023-01-31T14:04:30.667Z,18.43
2023-01-31T14:07:16.662Z,15.40
2023-01-31T14:09:46.660Z,14.67
2023-01-31T14:12:36.542Z,16.50
2023-01-31T14:15:25.885Z,15.77
2023-01-31T14:18:02.663Z,10.70
2023-01-31T14:20:32.195Z,9.90
2023-01-31T14:23:30.938Z,15.70
2023-01-31T14:25:58.869Z,7.33
2023-01-31T14:28:28.332Z,8.57
2023-01-31T14:30:57.146Z,9.73
2023-01-31T14:33:30.435Z,8.23
2023-01-31T14:36:32.354Z,8.87
2023-01-31T14:39:42.126Z,7.87
2023-01-31T14:42:28.337Z,8.03
2023-01-31T14:45:14.148Z,7.73
2023-01-31T14:47:56.964Z,7.70
2023-01-31T14:50:36.760Z,8.80
2023-01-31T14:53:17.820Z,6.33
2023-01-31T14:56:07.399Z,9.73
2023-01-31T14:58:36.100Z,6.73
2023-01-31T15:01:08.507Z,5.63
2023-01-31T15:03:38.949Z,7.20
2023-01-31T15:06:10.381Z,6.73
2023-01-31T15:08:47.841Z,9.50
2023-01-31T15:11:42.418Z,5.93
2023-01-31T15:14:34.215Z,7.20
2023-01-31T15:17:07.201Z,6.03
2023-01-31T15:19:43.899Z,8.57
2023-01-31T15:22:12.718Z,6.63
2023-01-31T15:24:44.476Z,7.07
2023-01-31T15:27:19.493Z,8.67
2023-01-31T15:29:55.191Z,7.30
2023-01-31T15:32:25.743Z,7.90
2023-01-31T15:37:32.345Z,7.33
2023-01-31T15:40:04.306Z,8.87
2023-01-31T15:42:34.822Z,6.77
2023-01-31T15:45:23.887Z,9.30
2023-01-31T15:47:59.521Z,13.93
2023-01-31T15:50:28.819Z,11.27
2023-01-31T15:52:57.204Z,11.00
2023-01-31T15:55:25.188Z,10.70
2023-01-31T15:57:57.530Z,9.80
2023-01-31T16:00:28.132Z,10.67
2023-01-31T16:03:01.347Z,7.80
2023-01-31T16:05:32.581Z,8.47
2023-01-31T16:08:01.328Z,7.73
2023-01-31T16:10:30.504Z,6.93
2023-01-31T16:13:01.506Z,8.53
2023-01-31T16:15:31.453Z,9.10
2023-01-31T16:18:03.066Z,12.30
2023-01-31T16:20:43.824Z,9.83
2023-01-31T16:23:30.038Z,11.33
2023-01-31T16:26:04.333Z,10.40
2023-01-31T16:28:38.841Z,9.40
2023-01-31T16:31:09.104Z,8.50
2023-01-31T16:33:37.650Z,16.20
2023-01-31T16:36:14.357Z,9.20
2023-01-31T16:38:44.020Z,9.53
2023-01-31T16:41:12.930Z,5.57
2023-01-31T16:43:43.730Z,7.60
2023-01-31T16:46:36.820Z,9.03
2023-01-31T16:49:06.728Z,7.57
2023-01-31T16:51:45.047Z,5.07
2023-01-31T16:54:18.903Z,3.80
2023-01-31T16:56:48.226Z,3.77
2023-01-31T16:59:51.233Z,6.17
2023-01-31T17:02:26.345Z,4.57
2023-01-31T17:04:56.529Z,6.83
2023-01-31T17:07:27.720Z,5.33
2023-01-31T17:09:57.596Z,2.53
2023-01-31T17:12:28.515Z,4.97
2023-01-31T17:15:00.802Z,4.20
2023-01-31T17:17:34.199Z,6.37
2023-01-31T17:20:02.135Z,8.57
2023-01-31T17:22:29.791Z,5.73
2023-01-31T17:24:57.437Z,8.63
2023-01-31T17:27:25.190Z,8.57
2023-01-31T17:29:52.944Z,5.03
2023-01-31T17:32:22.321Z,11.07
2023-01-31T17:34:50.023Z,6.60
2023-01-31T17:37:26.795Z,5.93
2023-01-31T17:39:59.625Z,9.27
2023-01-31T17:42:27.286Z,5.80
2023-01-31T17:44:55.015Z,6.40
2023-01-31T17:47:26.586Z,5.37
2023-01-31T17:49:54.779Z,9.10
2023-01-31T17:52:22.510Z,9.20
2023-01-31T17:54:50.249Z,9.37
2023-01-31T17:57:17.937Z,7.90
2023-01-31T17:59:45.580Z,11.27
2023-01-31T18:02:13.268Z,10.50
2023-01-31T18:04:42.274Z,9.60
2023-01-31T18:07:09.950Z,11.20
2023-01-31T18:09:37.645Z,12.33
2023-01-31T18:12:05.766Z,5.80
2023-01-31T18:14:33.611Z,14.70
2023-01-31T18:17:01.334Z,6.03
2023-01-31T18:19:29.392Z,9.27
2023-01-31T18:21:59.514Z,10.37
2023-01-31T18:24:27.235Z,6.10
2023-01-31T18:26:56.827Z,10.87
2023-01-31T18:29:26.339Z,14.23
2023-01-31T18:31:57.460Z,8.37
2023-01-31T18:34:25.672Z,6.03
2023-01-31T18:36:53.338Z,14.93
2023-01-31T18:39:23.516Z,12.00
2023-01-31T18:41:51.273Z,11.30
2023-01-31T18:44:18.940Z,9.00
2023-01-31T18:46:46.941Z,9.97
2023-01-31T18:49:14.694Z,9.33
2023-01-31T18:51:42.760Z,13.73
2023-01-31T18:54:10.613Z,12.70
2023-01-31T18:56:39.830Z,10.93
2023-01-31T18:59:07.554Z,13.40
2023-01-31T19:01:35.259Z,9.70
2023-01-31T19:04:02.935Z,12.03
2023-01-31T19:06:35.261Z,13.03
2023-01-31T19:09:04.535Z,9.20
2023-01-31T19:11:32.427Z,17.00
2023-01-31T19:14:06.510Z,10.37
2023-01-31T19:16:37.339Z,7.67
2023-01-31T19:19:05.045Z,12.13
2023-01-31T19:21:34.799Z,14.13
2023-01-31T19:24:03.985Z,15.40
2023-01-31T19:26:33.969Z,13.83
2023-01-31T19:29:03.895Z,13.37
2023-01-31T19:31:33.524Z,14.03
2023-01-31T19:34:02.924Z,17.80
2023-01-31T19:36:32.679Z,15.17
2023-01-31T19:39:02.013Z,11.53
2023-01-31T19:41:30.418Z,13.70
2023-01-31T19:43:59.777Z,16.83
2023-01-31T19:46:31.239Z,14.00
2023-01-31T19:49:00.181Z,11.77
2023-01-31T19:51:28.912Z,12.00
2023-01-31T19:53:59.949Z,14.23
2023-01-31T19:56:27.881Z,11.70
2023-01-31T19:58:55.659Z,14.77
2023-01-31T20:01:23.740Z,16.43
2023-01-31T20:03:54.875Z,14.63
2023-01-31T20:06:25.526Z,16.60
2023-01-31T20:08:54.826Z,13.07
2023-01-31T20:11:22.906Z,9.93
2023-01-31T20:13:51.194Z,14.23
2023-01-31T20:16:19.814Z,9.50
2023-01-31T20:18:47.542Z,14.43
2023-01-31T20:21:18.351Z,18.77
2023-01-31T20:23:46.364Z,16.83
2023-01-31T20:26:15.267Z,13.83
2023-01-31T20:28:43.438Z,15.80
2023-01-31T20:31:13.274Z,14.67
2023-01-31T20:33:41.370Z,12.50
2023-01-31T20:36:09.742Z,13.07
2023-01-31T20:38:40.003Z,15.13
2023-01-31T20:41:09.195Z,11.17
2023-01-31T20:43:37.580Z,20.37
2023-01-31T20:46:07.747Z,19.27
2023-01-31T20:48:35.635Z,17.50
2023-01-31T20:51:03.445Z,16.53
2023-01-31T20:53:31.914Z,17.50
2023-01-31T20:56:02.385Z,13.33
2023-01-31T20:58:33.098Z,15.10
2023-01-31T21:01:03.435Z,12.07
2023-01-31T21:03:32.638Z,18.70
2023-01-31T21:06:00.734Z,15.53
2023-01-31T21:08:29.835Z,13.23
2023-01-31T21:10:59.262Z,13.37
2023-01-31T21:13:28.975Z,15.40
2023-01-31T21:15:58.812Z,12.13
2023-01-31T21:18:29.267Z,15.10
2023-01-31T21:20:57.614Z,17.97
2023-01-31T21:23:25.610Z,13.40
2023-01-31T21:25:53.701Z,12.90
2023-01-31T21:28:21.333Z,16.63
2023-01-31T21:31:00.170Z,15.03
2023-01-31T21:33:28.315Z,10.43
2023-01-31T21:35:58.098Z,19.10
2023-01-31T21:38:26.302Z,13.60
2023-01-31T21:41:14.013Z,11.50
2023-01-31T21:43:41.028Z,16.90
2023-01-31T21:46:10.475Z,12.57
2023-01-31T21:48:38.666Z,14.97
2023-01-31T21:51:08.237Z,16.03
2023-01-31T21:53:36.197Z,22.27
2023-01-31T21:56:04.247Z,11.33
2023-01-31T21:58:32.538Z,10.27
2023-01-31T22:01:04.716Z,18.67
2023-01-31T22:03:34.817Z,16.13
2023-01-31T22:06:03.390Z,14.27
2023-01-31T22:08:31.564Z,11.40
2023-01-31T22:11:01.257Z,12.40
2023-01-31T22:13:29.015Z,12.67
2023-01-31T22:16:00.368Z,13.83
2023-01-31T22:18:29.203Z,12.00
2023-01-31T22:21:06.001Z,7.03
2023-01-31T22:23:34.505Z,10.77
2023-01-31T22:26:07.059Z,13.97
2023-01-31T22:28:35.416Z,13.47
2023-01-31T22:31:03.964Z,15.30
2023-01-31T22:33:32.282Z,9.83
2023-01-31T22:36:00.514Z,15.70
2023-01-31T22:38:29.719Z,16.63
2023-01-31T22:40:58.394Z,13.87
2023-01-31T22:43:27.027Z,19.87
2023-01-31T22:45:58.252Z,19.10
2023-01-31T22:48:27.261Z,15.50
2023-01-31T22:50:56.120Z,15.70
2023-01-31T22:53:24.142Z,11.23
2023-01-31T22:55:53.427Z,17.27
2023-01-31T22:58:21.939Z,13.17
2023-01-31T23:00:49.891Z,12.73
2023-01-31T23:03:17.592Z,17.77
2023-01-31T23:05:45.684Z,15.00
2023-01-31T23:08:14.373Z,15.30
2023-01-31T23:10:43.140Z,14.90
2023-01-31T23:13:12.591Z,12.63
2023-01-31T23:15:41.246Z,15.13
2023-01-31T23:18:09.219Z,18.27
2023-01-31T23:20:36.942Z,20.17
2023-01-31T23:23:04.751Z,17.67
2023-01-31T23:25:32.625Z,14.00
2023-01-31T23:28:02.297Z,18.97
2023-01-31T23:30:31.509Z,14.10
2023-01-31T23:32:59.445Z,19.67
2023-01-31T23:35:27.301Z,13.03
2023-01-31T23:37:55.017Z,17.13
2023-01-31T23:40:23.151Z,15.53
2023-01-31T23:42:51.205Z,14.17
2023-01-31T23:45:18.960Z,14.97
2023-01-31T23:47:50.362Z,16.27
2023-01-31T23:50:18.727Z,17.27
2023-01-31T23:52:46.609Z,16.60
2023-01-31T23:55:14.389Z,10.30
2023-01-31T23:57:42.318Z,14.67
